createdAt,value
2023-01-29T00:00:14.518Z,34.30
2023-01-29T00:02:43.313Z,43.40
2023-01-29T00:05:26.634Z,32.13
2023-01-29T00:07:57.611Z,28.95
2023-01-29T00:10:26.776Z,27.75
2023-01-29T00:12:55.977Z,30.25
2023-01-29T00:15:24.665Z,35.45
2023-01-29T00:17:53.072Z,33.53
2023-01-29T00:20:21.602Z,28.05
2023-01-29T00:22:50.075Z,23.98
2023-01-29T00:25:19.947Z,30.25
2023-01-29T00:27:48.870Z,29.95
2023-01-29T00:30:20.922Z,40.83
2023-01-29T00:32:49.425Z,34.55
2023-01-29T00:35:18.032Z,34.83
2023-01-29T00:37:46.552Z,31.38
2023-01-29T00:40:15.904Z,30.50
2023-01-29T00:43:04.714Z,36.60
2023-01-29T00:45:33.115Z,31.58
2023-01-29T00:48:01.973Z,34.53
2023-01-29T00:50:31.224Z,32.33
2023-01-29T00:53:00.159Z,32.63
2023-01-29T00:55:28.589Z,33.97
2023-01-29T00:57:58.336Z,28.77
2023-01-29T01:03:05.733Z,29.88
2023-01-29T01:05:35.137Z,31.55
2023-01-29T01:08:03.552Z,31.88
2023-01-29T01:10:34.002Z,31.75
2023-01-29T01:13:05.533Z,33.97
2023-01-29T01:15:36.873Z,29.73
2023-01-29T01:18:06.586Z,33.72
2023-01-29T01:23:05.115Z,29.73
2023-01-29T01:25:33.907Z,25.27
2023-01-29T01:28:03.739Z,29.50
2023-01-29T01:30:33.060Z,30.77
2023-01-29T01:33:01.592Z,28.00
2023-01-29T01:35:29.998Z,29.02
2023-01-29T01:37:58.708Z,28.17
2023-01-29T01:40:27.965Z,33.63
2023-01-29T01:42:58.500Z,33.78
2023-01-29T01:45:30.978Z,28.27
2023-01-29T01:48:03.482Z,30.33
2023-01-29T01:50:35.978Z,32.50
2023-01-29T01:53:08.077Z,28.90
2023-01-29T01:55:40.697Z,26.90
2023-01-29T01:58:13.885Z,29.45
2023-01-29T02:00:44.466Z,31.13
2023-01-29T02:03:31.786Z,29.08
2023-01-29T02:06:19.417Z,29.95
2023-01-29T02:09:10.804Z,31.15
2023-01-29T02:11:39.515Z,32.97
2023-01-29T02:14:08.765Z,30.33
2023-01-29T02:16:38.632Z,30.52
2023-01-29T02:19:12.571Z,27.40
2023-01-29T02:22:06.367Z,27.38
2023-01-29T02:25:10.223Z,30.02
2023-01-29T02:28:06.668Z,28.88
2023-01-29T02:30:39.413Z,29.17
2023-01-29T02:33:15.940Z,27.42
2023-01-29T02:35:52.020Z,30.20
2023-01-29T02:38:27.416Z,32.40
2023-01-29T02:41:01.891Z,31.83
2023-01-29T02:43:40.370Z,29.17
2023-01-29T02:46:16.423Z,28.63
2023-01-29T02:48:51.304Z,30.08
2023-01-29T02:51:26.060Z,36.60
2023-01-29T02:54:00.487Z,31.20
2023-01-29T02:56:34.263Z,31.45
2023-01-29T02:59:10.272Z,27.08
2023-01-29T03:01:43.724Z,26.55
2023-01-29T03:04:17.474Z,28.30
2023-01-29T03:06:50.765Z,29.58
2023-01-29T03:09:25.607Z,29.95
2023-01-29T03:11:58.919Z,28.13
2023-01-29T03:15:00.347Z,30.90
2023-01-29T03:17:36.142Z,32.92
2023-01-29T03:20:08.014Z,34.05
2023-01-29T03:22:38.449Z,30.95
2023-01-29T03:25:26.834Z,32.53
2023-01-29T03:28:15.370Z,33.28
2023-01-29T03:31:06.800Z,31.95
2023-01-29T03:33:43.500Z,36.80
2023-01-29T03:36:17.372Z,34.80
2023-01-29T03:38:46.451Z,35.40
2023-01-29T03:41:24.712Z,38.47
2023-01-29T03:43:59.956Z,31.50
2023-01-29T03:46:34.326Z,32.83
2023-01-29T03:49:08.349Z,35.00
2023-01-29T03:51:42.787Z,34.95
2023-01-29T03:54:17.227Z,35.97
2023-01-29T03:56:56.480Z,34.83
2023-01-29T03:59:38.032Z,37.88
2023-01-29T04:02:13.149Z,34.20
2023-01-29T04:04:46.272Z,35.13
2023-01-29T04:07:18.922Z,31.40
2023-01-29T04:09:50.178Z,32.05
2023-01-29T04:12:26.135Z,33.50
2023-01-29T04:14:56.785Z,35.25
2023-01-29T04:17:33.060Z,30.63
2023-01-29T04:20:02.499Z,34.25
2023-01-29T04:22:34.178Z,36.90
2023-01-29T04:25:08.461Z,34.72
2023-01-29T04:27:45.183Z,33.22
2023-01-29T04:30:24.653Z,34.25
2023-01-29T04:33:04.907Z,33.00
2023-01-29T04:35:38.592Z,36.25
2023-01-29T04:38:13.796Z,39.28
2023-01-29T04:40:52.323Z,36.85
2023-01-29T04:43:27.783Z,43.45
2023-01-29T04:46:10.524Z,39.47
2023-01-29T04:48:52.850Z,39.53
2023-01-29T04:51:26.190Z,40.50
2023-01-29T04:54:02.570Z,40.08
2023-01-29T04:56:37.259Z,40.70
2023-01-29T04:59:08.685Z,37.67
2023-01-29T05:01:39.392Z,37.90
2023-01-29T05:04:14.625Z,41.63
2023-01-29T05:06:46.535Z,41.97
2023-01-29T05:09:17.645Z,43.30
2023-01-29T05:11:47.552Z,38.95
2023-01-29T05:14:19.611Z,37.22
2023-01-29T05:16:52.608Z,40.40
2023-01-29T05:19:22.403Z,35.90
2023-01-29T05:21:51.407Z,38.00
2023-01-29T05:24:21.803Z,34.95
2023-01-29T05:27:09.896Z,36.50
2023-01-29T05:29:38.915Z,39.72
2023-01-29T05:32:07.498Z,33.70
2023-01-29T05:34:37.395Z,37.80
2023-01-29T05:37:06.132Z,35.38
2023-01-29T05:39:34.930Z,36.30
2023-01-29T05:42:03.836Z,37.93
2023-01-29T05:44:32.258Z,30.33
2023-01-29T05:47:02.765Z,38.55
2023-01-29T05:49:31.158Z,42.53
2023-01-29T05:52:00.945Z,38.33
2023-01-29T05:54:29.380Z,38.67
2023-01-29T05:56:57.846Z,44.08
2023-01-29T05:59:26.336Z,40.35
2023-01-29T06:01:54.738Z,40.90
2023-01-29T06:04:23.158Z,39.30
2023-01-29T06:06:51.543Z,43.15
2023-01-29T06:09:21.331Z,40.55
2023-01-29T06:11:49.755Z,41.75
2023-01-29T06:14:18.467Z,39.45
2023-01-29T06:16:46.954Z,39.72
2023-01-29T06:19:15.485Z,41.85
2023-01-29T06:21:43.872Z,39.85
2023-01-29T06:24:12.561Z,43.08
2023-01-29T06:26:42.357Z,40.77
2023-01-29T06:29:11.054Z,39.90
2023-01-29T06:31:40.013Z,42.60
2023-01-29T06:34:08.781Z,44.80
2023-01-29T06:36:37.231Z,39.22
2023-01-29T06:39:05.775Z,42.13
2023-01-29T06:41:34.461Z,47.17
2023-01-29T06:44:04.582Z,53.83
2023-01-29T06:46:33.018Z,44.03
2023-01-29T06:49:02.021Z,43.47
2023-01-29T06:51:30.568Z,46.13
2023-01-29T06:53:59.034Z,43.20
2023-01-29T06:56:27.963Z,43.17
2023-01-29T06:58:56.470Z,39.92
2023-01-29T07:01:35.693Z,45.95
2023-01-29T07:04:05.175Z,40.25
2023-01-29T07:06:33.997Z,40.03
2023-01-29T07:09:03.080Z,43.00
2023-01-29T07:11:31.934Z,39.33
2023-01-29T07:14:00.582Z,41.47
2023-01-29T07:16:30.370Z,39.33
2023-01-29T07:18:58.885Z,44.75
2023-01-29T07:21:27.321Z,43.92
2023-01-29T07:23:55.831Z,42.28
2023-01-29T07:26:24.381Z,43.10
2023-01-29T07:28:52.783Z,39.20
2023-01-29T07:31:21.579Z,39.95
2023-01-29T07:33:51.407Z,47.13
2023-01-29T07:36:20.415Z,38.95
2023-01-29T07:38:51.186Z,40.80
2023-01-29T07:41:19.946Z,39.28
2023-01-29T07:43:48.610Z,36.43
2023-01-29T07:46:17.199Z,38.50
2023-01-29T07:48:45.700Z,37.50
2023-01-29T07:51:17.029Z,39.28
2023-01-29T07:53:45.482Z,40.03
2023-01-29T07:56:13.980Z,34.03
2023-01-29T07:58:42.517Z,36.92
2023-01-29T08:01:11.210Z,39.33
2023-01-29T08:03:39.704Z,36.13
2023-01-29T08:06:08.518Z,37.00
2023-01-29T08:08:38.359Z,42.30
2023-01-29T08:11:07.225Z,39.53
2023-01-29T08:13:35.707Z,45.73
2023-01-29T08:16:04.777Z,37.60
2023-01-29T08:18:33.200Z,41.75
2023-01-29T08:21:02.405Z,39.05
2023-01-29T08:23:31.304Z,36.80
2023-01-29T08:26:03.011Z,42.67
2023-01-29T08:28:31.601Z,41.92
2023-01-29T08:31:00.164Z,36.78
2023-01-29T08:33:38.613Z,37.55
2023-01-29T08:36:09.210Z,39.63
2023-01-29T08:38:37.654Z,41.60
2023-01-29T08:41:08.195Z,45.67
2023-01-29T08:43:37.087Z,39.92
2023-01-29T08:46:06.512Z,38.55
2023-01-29T08:48:35.359Z,37.40
2023-01-29T08:51:04.619Z,36.73
2023-01-29T08:53:33.616Z,40.28
2023-01-29T08:56:02.688Z,41.08
2023-01-29T08:58:32.557Z,38.22
2023-01-29T09:01:07.807Z,40.92
2023-01-29T09:03:36.318Z,34.42
2023-01-29T09:06:05.293Z,32.80
2023-01-29T09:08:33.766Z,31.95
2023-01-29T09:11:02.215Z,35.35
2023-01-29T09:13:32.175Z,32.20
2023-01-29T09:16:01.620Z,33.08
2023-01-29T09:18:31.091Z,31.67
2023-01-29T09:20:59.796Z,36.40
2023-01-29T09:23:28.211Z,35.35
2023-01-29T09:25:57.017Z,31.50
2023-01-29T09:28:25.732Z,33.47
2023-01-29T09:30:55.589Z,36.80
2023-01-29T09:33:24.656Z,38.65
2023-01-29T09:35:53.005Z,33.90
2023-01-29T09:38:21.404Z,29.20
2023-01-29T09:40:58.771Z,32.67
2023-01-29T09:43:37.654Z,33.65
2023-01-29T09:46:15.083Z,28.90
2023-01-29T09:48:45.217Z,29.83
2023-01-29T09:51:26.517Z,29.80
2023-01-29T09:54:04.659Z,33.08
2023-01-29T09:56:33.502Z,34.17
2023-01-29T09:59:02.172Z,33.97
2023-01-29T10:01:37.988Z,35.25
2023-01-29T10:04:30.901Z,34.95
2023-01-29T10:07:12.501Z,27.38
2023-01-29T10:10:05.288Z,42.10
2023-01-29T10:13:01.608Z,35.63
2023-01-29T10:15:39.958Z,36.40
2023-01-29T10:18:34.530Z,30.30
2023-01-29T10:21:17.179Z,29.83
2023-01-29T10:23:51.274Z,30.40
2023-01-29T10:26:24.310Z,29.17
2023-01-29T10:28:55.960Z,30.25
2023-01-29T10:31:31.748Z,31.88
2023-01-29T10:34:06.174Z,30.38
2023-01-29T10:36:39.676Z,32.15
2023-01-29T10:39:16.790Z,30.70
2023-01-29T10:42:06.672Z,28.27
2023-01-29T10:44:44.752Z,28.80
2023-01-29T10:47:33.495Z,29.83
2023-01-29T10:50:14.957Z,32.67
2023-01-29T10:52:58.019Z,27.25
2023-01-29T10:55:38.142Z,33.83
2023-01-29T10:58:16.312Z,27.30
2023-01-29T11:00:44.725Z,28.92
2023-01-29T11:03:27.635Z,28.88
2023-01-29T11:06:05.666Z,32.13
2023-01-29T11:08:41.512Z,30.75
2023-01-29T11:11:14.471Z,30.02
2023-01-29T11:13:48.429Z,28.23
2023-01-29T11:16:16.905Z,29.02
2023-01-29T11:18:59.730Z,28.65
2023-01-29T11:21:31.122Z,28.02
2023-01-29T11:24:13.044Z,27.50
2023-01-29T11:26:43.934Z,24.58
2023-01-29T11:29:33.441Z,25.17
2023-01-29T11:32:04.929Z,26.85
2023-01-29T11:34:33.368Z,27.50
2023-01-29T11:37:04.661Z,27.75
2023-01-29T11:39:33.750Z,26.90
2023-01-29T11:42:04.093Z,29.63
2023-01-29T11:44:34.576Z,26.70
2023-01-29T11:47:14.101Z,26.00
2023-01-29T11:49:47.288Z,25.75
2023-01-29T11:52:19.438Z,29.73
2023-01-29T11:54:51.364Z,23.60
2023-01-29T11:57:31.306Z,27.40
2023-01-29T12:00:03.041Z,22.52
2023-01-29T12:02:36.935Z,25.02
2023-01-29T12:05:15.243Z,24.42
2023-01-29T12:07:47.162Z,28.52
2023-01-29T12:10:31.402Z,25.20
2023-01-29T12:13:05.952Z,24.85
2023-01-29T12:15:34.737Z,26.70
2023-01-29T12:18:09.660Z,21.50
2023-01-29T12:20:42.599Z,22.08
2023-01-29T12:23:26.883Z,24.08
2023-01-29T12:26:03.581Z,22.17
2023-01-29T12:28:42.080Z,24.60
2023-01-29T12:31:28.763Z,28.42
2023-01-29T12:34:06.250Z,29.52
2023-01-29T12:36:39.740Z,31.88
2023-01-29T12:39:12.175Z,28.60
2023-01-29T12:41:46.545Z,32.72
2023-01-29T12:44:20.289Z,33.22
2023-01-29T12:46:54.219Z,33.88
2023-01-29T12:49:27.518Z,35.15
2023-01-29T12:52:00.510Z,35.60
2023-01-29T12:54:36.579Z,31.33
2023-01-29T12:57:11.937Z,31.23
2023-01-29T12:59:44.342Z,35.15
2023-01-29T13:02:25.476Z,31.15
2023-01-29T13:05:00.332Z,31.60
2023-01-29T13:07:33.365Z,34.35
2023-01-29T13:10:10.843Z,29.23
2023-01-29T13:12:46.688Z,30.50
2023-01-29T13:15:23.932Z,35.47
2023-01-29T13:17:57.525Z,33.90
2023-01-29T13:20:30.383Z,32.10
2023-01-29T13:23:03.953Z,31.17
2023-01-29T13:25:33.749Z,29.88
2023-01-29T13:28:02.210Z,30.75
2023-01-29T13:30:32.668Z,33.75
2023-01-29T13:33:10.325Z,30.33
2023-01-29T13:35:42.834Z,29.30
2023-01-29T13:38:26.601Z,29.73
2023-01-29T13:41:01.891Z,34.30
2023-01-29T13:43:36.633Z,32.47
2023-01-29T13:46:10.854Z,30.77
2023-01-29T13:48:43.634Z,30.38
2023-01-29T13:51:17.696Z,33.13
2023-01-29T13:53:54.953Z,30.60
2023-01-29T13:56:48.972Z,34.13
2023-01-29T13:59:25.488Z,31.02
2023-01-29T14:02:05.248Z,36.15
2023-01-29T14:04:34.163Z,37.40
2023-01-29T14:07:04.106Z,37.25
2023-01-29T14:10:04.900Z,38.10
2023-01-29T14:12:44.884Z,31.10
2023-01-29T14:15:25.508Z,32.30
2023-01-29T14:18:01.387Z,29.33
2023-01-29T14:20:50.580Z,29.55
2023-01-29T14:23:29.676Z,30.17
2023-01-29T14:26:00.580Z,26.95
2023-01-29T14:28:33.645Z,28.92
2023-01-29T14:31:03.884Z,28.13
2023-01-29T14:33:37.835Z,25.80
2023-01-29T14:36:09.096Z,28.25
2023-01-29T14:38:38.453Z,29.70
2023-01-29T14:41:14.980Z,28.77
2023-01-29T14:43:44.766Z,32.20
2023-01-29T14:46:49.000Z,37.95
2023-01-29T14:49:51.700Z,30.60
2023-01-29T14:52:23.807Z,31.45
2023-01-29T14:54:53.801Z,26.70
2023-01-29T14:57:23.071Z,37.13
2023-01-29T14:59:57.916Z,42.90
2023-01-29T15:02:33.720Z,40.53
2023-01-29T15:05:04.473Z,37.65
2023-01-29T15:07:38.293Z,34.70
2023-01-29T15:10:22.716Z,34.50
2023-01-29T15:12:58.165Z,39.38
2023-01-29T15:15:35.254Z,35.03
2023-01-29T15:18:09.086Z,42.50
2023-01-29T15:20:39.717Z,39.40
2023-01-29T15:23:25.754Z,42.50
2023-01-29T15:25:57.393Z,44.85
2023-01-29T15:28:26.237Z,41.83
2023-01-29T15:30:59.191Z,42.97
2023-01-29T15:33:28.241Z,47.72
2023-01-29T15:36:06.897Z,44.08
2023-01-29T15:38:36.242Z,40.75
2023-01-29T15:41:17.074Z,42.85
2023-01-29T15:43:47.957Z,43.90
2023-01-29T15:46:25.698Z,37.88
2023-01-29T15:48:55.950Z,41.97
2023-01-29T15:51:27.576Z,44.80
2023-01-29T15:53:58.250Z,44.50
2023-01-29T15:56:30.283Z,47.25
2023-01-29T15:59:02.776Z,80.38
2023-01-29T16:01:33.382Z,74.28
2023-01-29T16:04:03.552Z,109.00
2023-01-29T16:06:37.334Z,69.13
2023-01-29T16:09:06.934Z,50.15
2023-01-29T16:11:36.381Z,48.33
2023-01-29T16:14:06.328Z,43.30
2023-01-29T16:16:36.343Z,46.47
2023-01-29T16:19:20.899Z,43.95
2023-01-29T16:21:55.799Z,43.72
2023-01-29T16:24:25.072Z,43.47
2023-01-29T16:26:58.706Z,40.22
2023-01-29T16:29:32.148Z,47.30
2023-01-29T16:32:03.582Z,43.55
2023-01-29T16:34:33.812Z,42.92
2023-01-29T16:37:05.618Z,48.33
2023-01-29T16:39:38.270Z,46.33
2023-01-29T16:42:27.833Z,40.33
2023-01-29T16:47:33.206Z,43.00
2023-01-29T16:50:03.915Z,41.42
2023-01-29T16:52:34.639Z,39.33
2023-01-29T16:55:20.647Z,39.42
2023-01-29T16:57:53.204Z,40.25
2023-01-29T17:00:25.471Z,41.90
2023-01-29T17:02:57.407Z,40.75
2023-01-29T17:05:29.957Z,36.10
2023-01-29T17:07:59.630Z,41.60
2023-01-29T17:13:00.723Z,41.40
2023-01-29T17:15:33.729Z,40.65
2023-01-29T17:18:03.961Z,45.65
2023-01-29T17:20:32.921Z,43.78
2023-01-29T17:23:01.434Z,44.17
2023-01-29T17:25:30.291Z,44.67
2023-01-29T17:28:01.915Z,45.57
2023-01-29T17:30:34.589Z,43.47
2023-01-29T17:33:11.963Z,45.28
2023-01-29T17:35:42.153Z,43.28
2023-01-29T17:38:25.037Z,47.03
2023-01-29T17:40:57.391Z,44.22
2023-01-29T17:43:25.804Z,42.80
2023-01-29T17:45:54.240Z,42.28
2023-01-29T17:48:25.784Z,53.10
2023-01-29T17:50:56.086Z,45.63
2023-01-29T17:53:26.639Z,47.78
2023-01-29T17:55:59.329Z,56.90
2023-01-29T17:58:29.386Z,48.95
2023-01-29T18:00:57.820Z,55.28
2023-01-29T18:03:27.731Z,45.85
2023-01-29T18:05:56.260Z,45.55
2023-01-29T18:08:30.049Z,39.83
2023-01-29T18:10:58.557Z,46.00
2023-01-29T18:13:26.960Z,48.33
2023-01-29T18:15:55.429Z,42.97
2023-01-29T18:18:25.187Z,43.85
2023-01-29T18:20:55.102Z,48.05
2023-01-29T18:23:23.542Z,52.40
2023-01-29T18:25:52.817Z,43.75
2023-01-29T18:28:21.271Z,33.63
2023-01-29T18:30:49.687Z,42.97
2023-01-29T18:33:18.920Z,45.28
2023-01-29T18:35:49.117Z,45.47
2023-01-29T18:38:19.277Z,43.75
2023-01-29T18:40:47.966Z,44.17
2023-01-29T18:43:16.997Z,47.53
2023-01-29T18:45:46.057Z,40.05
2023-01-29T18:48:14.550Z,51.70
2023-01-29T18:50:43.082Z,42.85
2023-01-29T18:53:11.538Z,40.65
2023-01-29T18:55:41.604Z,37.22
2023-01-29T18:58:27.466Z,35.65
2023-01-29T19:00:58.640Z,37.05
2023-01-29T19:03:27.532Z,32.45
2023-01-29T19:05:56.111Z,53.70
2023-01-29T19:08:24.626Z,40.58
2023-01-29T19:10:54.414Z,34.60
2023-01-29T19:15:51.304Z,36.05
2023-01-29T19:18:20.425Z,34.28
2023-01-29T19:20:49.947Z,31.48
2023-01-29T19:23:18.605Z,29.75
2023-01-29T19:25:47.204Z,28.75
2023-01-29T19:28:16.957Z,23.27
2023-01-29T19:30:45.436Z,22.35
2023-01-29T19:33:13.902Z,19.38
2023-01-29T19:35:45.671Z,22.02
2023-01-29T19:38:18.414Z,20.80
2023-01-29T19:40:47.016Z,20.33
2023-01-29T19:43:17.977Z,25.23
2023-01-29T19:45:49.454Z,24.13
2023-01-29T19:48:21.328Z,18.00
2023-01-29T19:50:53.752Z,16.70
2023-01-29T19:53:22.784Z,13.75
2023-01-29T19:55:59.020Z,15.68
2023-01-29T19:58:29.278Z,14.05
2023-01-29T20:00:58.397Z,16.98
2023-01-29T20:03:27.815Z,15.50
2023-01-29T20:05:56.563Z,16.52
2023-01-29T20:08:25.103Z,17.08
2023-01-29T20:10:53.510Z,19.08
2023-01-29T20:13:21.928Z,13.73
2023-01-29T20:15:52.863Z,14.27
2023-01-29T20:18:21.728Z,16.05
2023-01-29T20:20:52.968Z,18.60
2023-01-29T20:23:35.511Z,18.33
2023-01-29T20:26:05.704Z,16.85
2023-01-29T20:28:34.468Z,18.73
2023-01-29T20:31:04.669Z,16.63
2023-01-29T20:33:33.607Z,16.10
2023-01-29T20:36:04.111Z,14.50
2023-01-29T20:38:34.729Z,16.83
2023-01-29T20:41:07.990Z,18.00
2023-01-29T20:43:36.608Z,19.20
2023-01-29T20:46:06.883Z,16.30
2023-01-29T20:48:35.545Z,15.57
2023-01-29T20:51:09.392Z,15.55
2023-01-29T20:53:38.646Z,17.13
2023-01-29T20:56:08.278Z,16.70
2023-01-29T20:58:37.285Z,14.18
2023-01-29T21:01:10.538Z,13.30
2023-01-29T21:03:39.719Z,15.55
2023-01-29T21:06:09.481Z,15.65
2023-01-29T21:08:38.801Z,15.55
2023-01-29T21:11:09.160Z,16.35
2023-01-29T21:13:37.860Z,22.23
2023-01-29T21:16:07.012Z,14.40
2023-01-29T21:18:36.754Z,15.32
2023-01-29T21:23:33.488Z,13.77
2023-01-29T21:26:03.667Z,13.93
2023-01-29T21:28:32.371Z,14.48
2023-01-29T21:31:05.085Z,14.82
2023-01-29T21:33:36.038Z,16.27
2023-01-29T21:36:04.928Z,14.38
2023-01-29T21:38:33.514Z,15.57
2023-01-29T21:41:02.943Z,17.23
2023-01-29T21:43:30.550Z,16.45
2023-01-29T21:46:00.750Z,16.77
2023-01-29T21:48:29.245Z,13.23
2023-01-29T21:50:59.296Z,18.27
2023-01-29T21:53:27.849Z,11.65
2023-01-29T21:56:00.921Z,16.88
2023-01-29T21:58:29.747Z,14.52
2023-01-29T22:01:28.095Z,14.53
2023-01-29T22:03:47.488Z,15.10
2023-01-29T22:06:17.650Z,14.98
2023-01-29T22:08:46.258Z,13.32
2023-01-29T22:11:14.791Z,14.35
2023-01-29T22:13:43.295Z,13.88
2023-01-29T22:16:11.692Z,14.52
2023-01-29T22:18:40.047Z,13.73
2023-01-29T22:21:08.763Z,14.95
2023-01-29T22:23:39.269Z,14.90
2023-01-29T22:26:09.351Z,16.65
2023-01-29T22:28:37.803Z,15.20
2023-01-29T22:31:07.248Z,14.20
2023-01-29T22:33:35.813Z,11.25
2023-01-29T22:36:04.688Z,12.30
2023-01-29T22:38:33.051Z,13.98
2023-01-29T22:41:03.458Z,13.05
2023-01-29T22:43:31.922Z,16.33
2023-01-29T22:46:00.410Z,14.43
2023-01-29T22:48:30.519Z,16.13
2023-01-29T22:51:10.369Z,14.27
2023-01-29T22:53:39.685Z,14.95
2023-01-29T22:56:10.344Z,18.90
2023-01-29T22:58:38.866Z,13.57
2023-01-29T23:01:07.487Z,14.13
2023-01-29T23:03:36.625Z,16.42
2023-01-29T23:06:05.423Z,15.45
2023-01-29T23:08:34.450Z,17.00
2023-01-29T23:11:14.124Z,12.35
2023-01-29T23:13:46.416Z,14.73
2023-01-29T23:16:16.405Z,16.75
2023-01-29T23:18:45.462Z,27.75
2023-01-29T23:21:13.892Z,25.00
2023-01-29T23:23:44.707Z,23.25
2023-01-29T23:26:31.656Z,23.23
2023-01-29T23:29:01.735Z,29.92
2023-01-29T23:31:30.231Z,32.40
2023-01-29T23:33:58.805Z,31.77
2023-01-29T23:36:27.257Z,32.95
2023-01-29T23:38:55.677Z,32.60
2023-01-29T23:41:24.143Z,32.88
2023-01-29T23:43:54.002Z,29.73
2023-01-29T23:46:24.102Z,30.90
2023-01-29T23:48:52.584Z,32.20
2023-01-29T23:51:20.972Z,34.03
2023-01-29T23:53:49.368Z,36.03
2023-01-29T23:56:18.045Z,31.13
2023-01-29T23:58:46.477Z,30.63
